Time;durP1;ratioP1;P1;durP2;ratioP2;P2;SDS_P1;SDS_P2;PMS_P1;PMS_P2;Temp;Humidity;BMP_temperature;BMP_pressure;BME280_temperature;BME280_humidity;BME280_pressure;Samples;Min_cycle;Max_cycle;Signal;HPM_P1;HPM_P2
2021/06/09 00:01:55;;;;;;;9.00;6.60;;;;;;;15.17;67.59;100694.76;102354;1114;84939;-60
2021/06/09 00:04:02;;;;;;;6.30;5.70;;;;;;;15.10;67.67;100693.95;102382;1115;74706;-64
2021/06/09 00:06:09;;;;;;;7.30;6.40;;;;;;;15.01;67.91;100692.48;102376;1115;80027;-63
2021/06/09 00:08:17;;;;;;;7.80;7.10;;;;;;;14.93;68.13;100689.14;102373;1115;65407;-63
2021/06/09 00:10:24;;;;;;;7.20;6.50;;;;;;;14.90;68.23;100695.00;102449;1115;69227;-59
2021/06/09 00:12:33;;;;;;;9.10;7.00;;;;;;;14.85;68.35;100686.64;102374;1115;84872;-59
2021/06/09 00:14:40;;;;;;;9.40;6.40;;;;;;;14.81;68.45;100682.64;102417;1115;74040;-60
2021/06/09 00:16:48;;;;;;;8.40;6.40;;;;;;;14.72;68.69;100691.02;102373;1115;81651;-60
2021/06/09 00:18:55;;;;;;;8.10;5.60;;;;;;;14.64;68.89;100685.79;102501;1115;67830;-63
2021/06/09 00:21:02;;;;;;;10.50;6.50;;;;;;;14.59;69.14;100677.42;102470;1115;69461;-63
2021/06/09 00:23:11;;;;;;;7.30;6.00;;;;;;;14.53;69.34;100680.97;102480;1115;83528;-63
2021/06/09 00:25:22;;;;;;;7.30;6.60;;;;;;;14.50;69.42;100681.38;102490;1115;73853;-61
2021/06/09 00:27:29;;;;;;;9.40;7.00;;;;;;;14.44;69.48;100684.95;102472;1115;81604;-64
2021/06/09 00:29:37;;;;;;;6.60;6.00;;;;;;;14.44;69.53;100686.83;102474;1115;69034;-58
2021/06/09 00:31:47;;;;;;;6.70;6.00;;;;;;;14.41;69.54;100685.37;102482;1114;69367;-59
2021/06/09 00:33:54;;;;;;;7.50;6.40;;;;;;;14.37;69.56;100684.09;102494;1114;84652;-59
2021/06/09 00:36:02;;;;;;;6.80;6.10;;;;;;;14.33;69.81;100682.01;102479;1114;74337;-59
2021/06/09 00:38:09;;;;;;;7.50;6.80;;;;;;;14.29;69.89;100680.70;102476;1115;81357;-58
2021/06/09 00:40:18;;;;;;;7.80;6.60;;;;;;;14.25;70.01;100680.30;102459;1114;67031;-66
2021/06/09 00:42:25;;;;;;;6.80;6.20;;;;;;;14.23;69.88;100676.11;102500;1115;69126;-65
2021/06/09 00:44:33;;;;;;;9.10;7.20;;;;;;;14.17;70.18;100675.06;102496;1114;83643;-60
2021/06/09 00:46:43;;;;;;;7.90;7.20;;;;;;;14.11;70.40;100668.56;102504;1115;74922;-62
2021/06/09 00:48:50;;;;;;;8.30;7.10;;;;;;;14.06;70.53;100675.66;102487;1115;80644;-65
2021/06/09 00:51:00;;;;;;;8.00;7.20;;;;;;;14.04;70.54;100677.72;102475;1114;67994;-65
2021/06/09 00:55:41;;;;;;;8.70;7.90;;;;;;;13.97;70.98;100677.72;102360;1118;84688;-64
2021/06/09 00:57:50;;;;;;;8.30;7.50;;;;;;;13.91;70.96;100675.81;102357;1118;75338;-64
2021/06/09 00:59:57;;;;;;;8.20;7.40;;;;;;;13.87;71.05;100674.53;102465;1115;81476;-65
2021/06/09 01:02:05;;;;;;;8.70;7.30;;;;;;;13.86;70.97;100672.88;102439;1115;69204;-64
2021/06/09 01:04:12;;;;;;;7.70;6.90;;;;;;;13.81;71.08;100677.24;102521;1115;69219;-60
2021/06/09 01:06:21;;;;;;;9.30;7.50;;;;;;;13.81;71.29;100666.38;102500;1115;84247;-64
2021/06/09 01:08:29;;;;;;;7.50;6.80;;;;;;;13.74;71.38;100669.06;102474;1115;74764;-59
2021/06/09 01:10:36;;;;;;;7.70;7.00;;;;;;;13.71;71.44;100677.61;102511;1115;81214;-65
2021/06/09 01:12:44;;;;;;;7.80;7.00;;;;;;;13.68;71.54;100677.20;102473;1115;66164;-65
2021/06/09 01:14:51;;;;;;;8.60;7.70;;;;;;;13.65;71.53;100688.46;102500;1115;68894;-65
2021/06/09 01:16:58;;;;;;;8.90;7.50;;;;;;;13.61;71.65;100679.88;102477;1114;83530;-65
2021/06/09 01:19:05;;;;;;;7.70;7.00;;;;;;;13.64;71.64;100686.77;102476;1115;73656;-65
2021/06/09 01:21:16;;;;;;;9.70;7.50;;;;;;;13.68;71.82;100688.06;102500;1115;81263;-65
2021/06/09 01:23:27;;;;;;;8.80;7.90;;;;;;;13.68;71.95;100682.63;102504;1114;66004;-64
2021/06/09 01:25:34;;;;;;;8.60;7.70;;;;;;;13.68;71.97;100682.63;102478;1114;69325;-59
2021/06/09 01:27:44;;;;;;;10.70;8.10;;;;;;;13.58;71.97;100689.27;102475;1115;85111;-61
2021/06/09 01:29:51;;;;;;;11.00;7.70;;;;;;;13.54;72.00;100687.97;102458;1115;76250;-65
2021/06/09 01:31:59;;;;;;;9.70;8.20;;;;;;;13.48;72.12;100688.80;102448;1115;81085;-60
2021/06/09 01:34:07;;;;;;;9.00;8.10;;;;;;;13.46;72.23;100696.28;102505;1115;65906;-64
2021/06/09 01:36:17;;;;;;;9.10;7.50;;;;;;;13.51;72.47;100691.09;102499;1115;68675;-64
2021/06/09 01:38:25;;;;;;;11.10;7.60;;;;;;;13.52;72.35;100681.92;102452;1115;84178;-63
2021/06/09 01:40:33;;;;;;;9.60;8.70;;;;;;;13.48;72.57;100688.80;102485;1115;74825;-63
2021/06/09 01:42:41;;;;;;;10.40;8.40;;;;;;;13.44;72.57;100692.95;102373;1115;82506;-63
2021/06/09 01:44:49;;;;;;;8.60;7.80;;;;;;;13.41;72.58;100685.20;102361;1115;67939;-60
2021/06/09 01:46:56;;;;;;;9.70;8.10;;;;;;;13.39;72.55;100700.01;102392;1115;68208;-61
2021/06/09 01:49:05;;;;;;;9.60;8.70;;;;;;;13.35;72.64;100693.33;102389;1116;83948;-64
2021/06/09 01:51:12;;;;;;;10.00;9.10;;;;;;;13.29;72.72;100700.39;102425;1115;73533;-65
2021/06/09 01:53:20;;;;;;;11.20;9.80;;;;;;;13.26;72.75;100700.78;102382;1115;80429;-64
2021/06/09 01:55:29;;;;;;;10.50;8.90;;;;;;;13.19;72.92;100704.47;102406;1115;69307;-63
2021/06/09 01:57:37;;;;;;;11.10;9.10;;;;;;;13.14;72.96;100706.94;102395;1115;69033;-65
2021/06/09 01:59:45;;;;;;;9.80;8.20;;;;;;;13.13;73.18;100699.86;102408;1115;84862;-59
2021/06/09 02:01:54;;;;;;;9.50;8.60;;;;;;;13.11;73.16;100700.04;102412;1116;73991;-59
2021/06/09 02:04:01;;;;;;;13.00;11.10;;;;;;;13.08;73.23;100705.02;102404;1116;81585;-63
2021/06/09 02:06:09;;;;;;;10.20;9.20;;;;;;;13.03;73.10;100702.88;102410;1116;68066;-63
2021/06/09 02:08:17;;;;;;;10.30;8.60;;;;;;;13.03;73.15;100701.01;102383;1116;69034;-65
2021/06/09 02:10:26;;;;;;;9.50;8.50;;;;;;;13.01;73.37;100704.95;102420;1116;85350;-64
2021/06/09 02:12:33;;;;;;;9.50;8.70;;;;;;;12.98;73.34;100718.91;102414;1116;73788;-64
2021/06/09 02:14:42;;;;;;;9.80;8.80;;;;;;;12.97;73.53;100717.22;102417;1118;81012;-60
2021/06/09 02:16:50;;;;;;;10.70;8.90;;;;;;;12.93;73.60;100711.38;102366;1116;67343;-60
2021/06/09 02:18:57;;;;;;;9.60;8.70;;;;;;;12.92;73.56;100708.84;102380;1116;68367;-63
2021/06/09 02:21:06;;;;;;;11.50;9.40;;;;;;;12.92;73.58;100711.55;102387;1116;83667;-63
2021/06/09 02:23:15;;;;;;;12.20;8.20;;;;;;;12.91;73.63;100712.61;102414;1117;74504;-64
2021/06/09 02:25:23;;;;;;;9.30;8.40;;;;;;;12.86;73.61;100713.17;102424;1116;81096;-66
2021/06/09 02:27:31;;;;;;;9.90;8.60;;;;;;;12.84;73.84;100712.55;102366;1116;67069;-65
2021/06/09 02:29:38;;;;;;;9.70;8.70;;;;;;;12.84;73.85;100719.83;102394;1116;67430;-64
2021/06/09 02:31:51;;;;;;;10.40;8.90;;;;;;;12.80;73.85;100716.66;102389;1115;85453;-63
2021/06/09 02:33:58;;;;;;;10.00;8.80;;;;;;;12.81;73.72;100722.93;102409;1116;73700;-63
2021/06/09 02:36:07;;;;;;;9.60;8.60;;;;;;;12.83;73.59;100720.86;102365;1116;81222;-63
2021/06/09 02:38:16;;;;;;;10.10;9.10;;;;;;;12.87;73.85;100725.70;102394;1115;65160;-64
2021/06/09 02:40:25;;;;;;;10.80;8.60;;;;;;;12.81;74.01;100712.93;102439;1115;68354;-60
2021/06/09 02:42:36;;;;;;;10.10;9.10;;;;;;;12.77;74.08;100722.48;102407;1115;85041;-62
2021/06/09 02:44:43;;;;;;;10.60;8.70;;;;;;;12.77;74.01;100722.48;102451;1115;73480;-64
2021/06/09 02:46:56;;;;;;;10.10;9.10;;;;;;;12.73;74.10;100710.36;102378;1115;80863;-63
2021/06/09 02:49:07;;;;;;;9.90;8.60;;;;;;;12.70;74.17;100715.33;102416;1116;66778;-63
2021/06/09 02:51:20;;;;;;;10.30;9.00;;;;;;;12.71;74.11;100715.15;102428;1116;69406;-63
2021/06/09 02:53:35;;;;;;;13.70;9.80;;;;;;;12.76;74.21;100717.27;102392;1116;84341;-64
2021/06/09 02:56:06;;;;;;;11.00;9.40;;;;;;;12.79;74.15;100719.59;102376;1116;74930;-59
2021/06/09 02:58:23;;;;;;;11.40;10.20;;;;;;;12.83;74.45;100715.44;102381;1116;81362;-60
2021/06/09 03:00:37;;;;;;;12.40;9.70;;;;;;;12.87;74.35;100716.73;102388;1116;67022;-65
2021/06/09 03:02:52;;;;;;;10.90;9.80;;;;;;;12.91;74.39;100728.88;102394;1116;68603;-64
2021/06/09 03:05:06;;;;;;;12.00;9.90;;;;;;;12.97;74.58;100723.48;102405;1116;84557;-59
2021/06/09 03:07:22;;;;;;;12.10;10.40;;;;;;;13.00;74.54;100719.53;102436;1116;74563;-61
2021/06/09 03:09:37;;;;;;;11.10;10.00;;;;;;;13.01;74.61;100713.09;102385;1114;81711;-63
2021/06/09 03:11:58;;;;;;;11.10;10.00;;;;;;;13.08;74.59;100711.28;102402;1116;68251;-63
2021/06/09 03:14:29;;;;;;;9.90;8.90;;;;;;;13.13;74.63;100711.52;102411;1116;68277;-59
2021/06/09 03:16:49;;;;;;;9.80;8.90;;;;;;;13.18;74.64;100719.93;102404;1116;85515;-60
2021/06/09 03:19:03;;;;;;;11.30;10.20;;;;;;;13.21;74.70;100707.84;102382;1116;74505;-59
2021/06/09 03:21:15;;;;;;;13.40;10.40;;;;;;;13.25;74.77;100700.97;102387;1116;81196;-61
2021/06/09 03:23:40;;;;;;;11.40;10.10;;;;;;;13.32;74.83;100702.67;102384;1114;67468;-60
2021/06/09 03:26:00;;;;;;;12.60;9.80;;;;;;;13.58;74.89;100697.41;102426;1116;68100;-60
2021/06/09 03:28:26;;;;;;;12.10;9.90;;;;;;;14.17;74.71;100694.89;102402;1116;85168;-60
2021/06/09 03:30:35;;;;;;;11.60;10.40;;;;;;;14.98;73.97;100701.06;102376;1116;74856;-66
2021/06/09 03:32:50;;;;;;;11.00;10.00;;;;;;;15.68;73.34;100700.33;102377;1116;81404;-63
2021/06/09 03:35:04;;;;;;;10.30;9.40;;;;;;;16.90;72.52;100700.00;102366;1115;65837;-64
2021/06/09 03:37:10;;;;;;;;;;;;;;;18.13;71.27;100688.77;102412;1116;68571;-65
2021/06/09 03:39:26;;;;;;;10.10;9.00;;;;;;;19.24;69.74;100688.90;102417;1116;84404;-58
2021/06/09 03:41:40;;;;;;;9.30;8.40;;;;;;;20.24;67.97;100689.45;102408;1116;74892;-59
2021/06/09 03:43:55;;;;;;;9.30;8.40;;;;;;;21.15;66.28;100691.05;102375;1116;81089;-64
2021/06/09 03:46:05;;;;;;;9.50;8.60;;;;;;;21.98;64.40;100689.98;102418;1116;66545;-64
2021/06/09 03:48:15;;;;;;;10.20;9.30;;;;;;;22.56;63.35;100692.83;102405;1116;68585;-65
2021/06/09 03:50:25;;;;;;;9.90;9.10;;;;;;;23.21;61.80;100695.33;102386;1115;85926;-66
2021/06/09 03:52:33;;;;;;;10.40;9.00;;;;;;;23.66;60.58;100697.57;102410;1116;74558;-66
2021/06/09 03:54:46;;;;;;;10.70;9.50;;;;;;;24.05;59.18;100695.26;102377;1116;81138;-59
2021/06/09 03:56:55;;;;;;;10.40;9.30;;;;;;;24.49;57.72;100695.69;102414;1116;65547;-61
2021/06/09 03:59:03;;;;;;;10.60;9.50;;;;;;;24.90;56.52;100704.87;102432;1116;69631;-66
2021/06/09 04:01:12;;;;;;;10.10;9.00;;;;;;;25.29;55.09;100705.13;102397;1114;84546;-64
2021/06/09 04:03:23;;;;;;;9.30;7.40;;;;;;;25.73;53.81;100708.92;102400;1116;74903;-66
2021/06/09 04:05:31;;;;;;;8.80;7.70;;;;;;;25.83;52.31;100713.58;102394;1116;81626;-65
2021/06/09 04:07:40;;;;;;;9.80;6.60;;;;;;;25.96;51.47;100713.80;102394;1116;65530;-64
2021/06/09 04:09:48;;;;;;;7.60;6.90;;;;;;;26.27;50.24;100708.98;102382;1116;68678;-66
2021/06/09 04:12:00;;;;;;;9.70;7.30;;;;;;;26.55;49.16;100707.44;102400;1116;85000;-65
2021/06/09 04:14:16;;;;;;;8.70;6.70;;;;;;;26.74;48.04;100700.09;102421;1116;75239;-59
2021/06/09 04:16:30;;;;;;;8.40;6.40;;;;;;;26.80;46.74;100698.97;102407;1116;81649;-60
2021/06/09 04:18:40;;;;;;;7.30;5.80;;;;;;;26.93;46.39;100698.30;102386;1116;66658;-65
2021/06/09 04:20:50;;;;;;;6.70;5.40;;;;;;;27.24;45.47;100702.47;102423;1116;69192;-66
2021/06/09 04:22:58;;;;;;;6.20;5.50;;;;;;;27.47;44.62;100709.19;102371;1118;85283;-67
2021/06/09 04:25:13;;;;;;;8.70;5.60;;;;;;;27.82;44.08;100705.20;102373;1116;74777;-61
2021/06/09 04:27:25;;;;;;;8.40;5.70;;;;;;;28.08;43.45;100701.00;102384;1116;80016;-58
2021/06/09 04:29:34;;;;;;;7.50;5.60;;;;;;;28.06;41.71;100698.54;102405;1116;65706;-65
2021/06/09 04:31:41;;;;;;;6.50;5.20;;;;;;;28.02;42.05;100699.38;102389;1116;68252;-64
2021/06/09 04:33:53;;;;;;;8.40;5.40;;;;;;;28.31;41.28;100699.31;102375;1116;85403;-60
2021/06/09 04:36:05;;;;;;;10.50;5.70;;;;;;;28.74;41.18;100697.30;102416;1116;75505;-59
2021/06/09 04:38:18;;;;;;;14.60;6.60;;;;;;;29.04;40.46;100696.78;102399;1116;81068;-60
2021/06/09 04:40:27;;;;;;;10.90;6.10;;;;;;;29.40;39.36;100700.63;102364;1116;65295;-66
2021/06/09 04:42:35;;;;;;;9.30;5.30;;;;;;;28.92;39.25;100704.80;102386;1116;68736;-66
2021/06/09 04:44:44;;;;;;;13.20;5.90;;;;;;;28.32;38.27;100709.31;102417;1116;85369;-65
2021/06/09 04:46:55;;;;;;;16.60;5.30;;;;;;;27.23;39.81;100709.13;102393;1116;74419;-62
2021/06/09 04:49:05;;;;;;;11.90;5.20;;;;;;;26.12;40.33;100714.59;102420;1116;81177;-58
2021/06/09 04:51:12;;;;;;;12.00;5.10;;;;;;;25.03;41.20;100716.20;102419;1116;65653;-60
2021/06/09 04:53:21;;;;;;;12.60;5.30;;;;;;;24.17;42.37;100719.91;102416;1116;68976;-60
2021/06/09 04:55:29;;;;;;;6.00;4.10;;;;;;;24.31;44.43;100721.86;102382;1115;84912;-60
2021/06/09 04:57:36;;;;;;;13.50;4.80;;;;;;;25.85;43.99;100714.95;102400;1116;75167;-59
2021/06/09 04:59:43;;;;;;;7.10;4.40;;;;;;;26.95;42.17;100707.98;102370;1116;82479;-63
2021/06/09 05:01:51;;;;;;;8.30;4.60;;;;;;;27.89;41.16;100706.50;102389;1116;66980;-67
2021/06/09 05:03:58;;;;;;;5.50;4.20;;;;;;;28.81;39.25;100700.53;102418;1116;67464;-66
2021/06/09 05:06:06;;;;;;;4.90;3.70;;;;;;;29.46;38.20;100699.41;102378;1116;84720;-68
2021/06/09 05:08:13;;;;;;;6.00;4.40;;;;;;;29.55;37.10;100697.56;102431;1116;74619;-64
2021/06/09 05:10:21;;;;;;;5.10;3.80;;;;;;;29.82;37.17;100710.70;102386;1116;81101;-59
2021/06/09 05:12:35;;;;;;;4.70;3.50;;;;;;;30.09;35.77;100710.69;102402;1116;66396;-60
2021/06/09 05:14:49;;;;;;;5.40;3.70;;;;;;;30.26;35.09;100713.66;102421;1116;69543;-60
2021/06/09 05:16:58;;;;;;;6.20;3.80;;;;;;;30.66;35.07;100705.52;102408;1116;84659;-60
2021/06/09 05:19:08;;;;;;;4.50;4.00;;;;;;;30.99;34.39;100712.54;102421;1116;74601;-66
2021/06/09 05:21:26;;;;;;;5.70;3.70;;;;;;;31.25;33.53;100712.72;102386;1116;81021;-66
2021/06/09 05:23:39;;;;;;;6.10;3.60;;;;;;;31.53;33.47;100709.45;102422;1116;66991;-66
2021/06/09 05:25:50;;;;;;;6.30;4.20;;;;;;;32.16;33.05;100707.41;102428;1116;67987;-65
2021/06/09 05:28:01;;;;;;;9.20;4.10;;;;;;;32.45;31.83;100702.85;102397;1116;85518;-64
2021/06/09 05:30:16;;;;;;;5.90;3.40;;;;;;;32.66;31.12;100694.68;102387;1116;75183;-59
2021/06/09 05:32:24;;;;;;;6.90;3.90;;;;;;;32.92;30.85;100698.27;102410;1116;80336;-60
2021/06/09 05:34:32;;;;;;;5.40;3.40;;;;;;;32.89;30.87;100696.13;102395;1115;66118;-60
2021/06/09 05:36:43;;;;;;;4.60;3.70;;;;;;;31.83;31.40;100705.00;102429;1116;68714;-61
2021/06/09 05:38:50;;;;;;;5.20;3.80;;;;;;;31.91;31.95;100698.61;102404;1116;85181;-60
2021/06/09 05:41:01;;;;;;;5.20;3.30;;;;;;;32.38;31.29;100702.53;102403;1116;73981;-60
2021/06/09 05:43:09;;;;;;;5.60;3.70;;;;;;;32.29;31.31;100698.89;102369;1116;81096;-59
2021/06/09 05:45:28;;;;;;;7.10;3.40;;;;;;;33.05;30.86;100702.03;102429;1116;65848;-67
2021/06/09 05:47:43;;;;;;;7.50;3.70;;;;;;;33.62;29.99;100700.61;102427;1115;67666;-69
2021/06/09 05:50:16;;;;;;;5.80;3.30;;;;;;;33.77;29.61;100690.83;102421;1116;84441;-60
2021/06/09 05:52:29;;;;;;;6.20;3.50;;;;;;;33.93;29.34;100689.09;102389;1116;74790;-60
2021/06/09 05:54:39;;;;;;;6.50;3.40;;;;;;;34.17;28.36;100688.50;102397;1116;81593;-66
2021/06/09 05:56:47;;;;;;;9.60;3.40;;;;;;;34.33;28.34;100681.95;102399;1115;66234;-67
2021/06/09 05:58:54;;;;;;;7.80;3.80;;;;;;;34.25;28.35;100685.64;102389;1116;69127;-66
2021/06/09 06:01:06;;;;;;;7.20;3.50;;;;;;;34.38;28.16;100686.53;102430;1116;85224;-66
2021/06/09 06:03:14;;;;;;;9.50;3.60;;;;;;;34.55;28.13;100686.41;102393;1116;75176;-66
2021/06/09 06:05:25;;;;;;;14.00;4.60;;;;;;;34.66;27.83;100690.47;102365;1116;81927;-67
2021/06/09 06:07:33;;;;;;;10.00;3.60;;;;;;;34.64;27.65;100692.77;102389;1116;65667;-67
2021/06/09 06:09:41;;;;;;;7.90;3.10;;;;;;;34.81;27.33;100697.42;102421;1118;67833;-58
2021/06/09 06:11:51;;;;;;;6.20;3.40;;;;;;;35.00;27.53;100702.55;102375;1116;84743;-59
2021/06/09 06:14:03;;;;;;;3.20;2.90;;;;;;;35.04;26.67;100704.31;102381;1114;75727;-60
2021/06/09 06:16:15;;;;;;;4.70;2.80;;;;;;;35.21;26.20;100698.55;102388;1116;81826;-58
2021/06/09 06:18:33;;;;;;;8.80;3.30;;;;;;;35.19;26.33;100702.88;102414;1116;66772;-60
2021/06/09 06:20:44;;;;;;;4.00;2.90;;;;;;;35.25;25.87;100707.09;102415;1116;68060;-57
2021/06/09 06:22:53;;;;;;;4.20;3.10;;;;;;;35.10;25.91;100699.34;102402;1116;84769;-65
2021/06/09 06:25:01;;;;;;;3.70;3.00;;;;;;;35.36;25.73;100699.86;102401;1116;75755;-63
2021/06/09 06:27:12;;;;;;;3.80;2.70;;;;;;;35.41;25.90;100692.03;102386;1116;80877;-64
2021/06/09 06:29:22;;;;;;;3.30;2.80;;;;;;;35.46;26.30;100688.98;102410;1116;66652;-64
2021/06/09 06:31:30;;;;;;;4.40;2.90;;;;;;;35.38;25.43;100691.92;102430;1116;68126;-64
2021/06/09 06:33:39;;;;;;;4.80;2.90;;;;;;;35.47;25.64;100689.81;102386;1116;86356;-68
2021/06/09 06:35:47;;;;;;;4.90;3.20;;;;;;;35.56;25.10;100695.36;102398;1116;73408;-69
2021/06/09 06:37:54;;;;;;;4.10;2.90;;;;;;;35.82;25.86;100699.48;102373;1116;81727;-68
2021/06/09 06:40:06;;;;;;;4.60;3.00;;;;;;;36.00;25.29;100698.09;102394;1117;67108;-69
2021/06/09 06:42:17;;;;;;;3.50;2.80;;;;;;;35.85;24.77;100693.16;102447;1116;68862;-69
2021/06/09 06:44:28;;;;;;;4.60;3.10;;;;;;;35.77;24.67;100698.89;102377;1116;85113;-64
2021/06/09 06:46:35;;;;;;;3.80;2.70;;;;;;;35.98;25.05;100697.63;102386;1116;75258;-63
2021/06/09 06:48:44;;;;;;;3.00;2.60;;;;;;;35.56;24.42;100686.94;102389;1116;81839;-67
2021/06/09 06:50:55;;;;;;;3.20;2.70;;;;;;;35.33;24.90;100687.33;102387;1116;66299;-69
2021/06/09 06:53:09;;;;;;;3.70;2.40;;;;;;;35.48;24.19;100695.10;102393;1116;69229;-70
2021/06/09 06:55:18;;;;;;;3.00;2.50;;;;;;;35.58;24.60;100690.20;102380;1116;84332;-69
2021/06/09 06:57:25;;;;;;;3.90;2.60;;;;;;;36.02;24.39;100692.95;102413;1116;75931;-69
2021/06/09 06:59:33;;;;;;;4.30;2.50;;;;;;;36.42;24.79;100698.66;102404;1116;81313;-67
2021/06/09 07:01:41;;;;;;;6.20;2.50;;;;;;;36.30;23.69;100695.85;102393;1116;66352;-69
2021/06/09 07:03:50;;;;;;;3.40;2.50;;;;;;;36.19;23.89;100697.52;102408;1116;69190;-69
2021/06/09 07:05:58;;;;;;;3.70;2.80;;;;;;;35.69;23.85;100700.65;102407;1116;83831;-69
2021/06/09 07:08:07;;;;;;;2.90;2.40;;;;;;;36.00;24.12;100700.08;102432;1116;75111;-62
2021/06/09 07:10:18;;;;;;;4.10;2.40;;;;;;;35.96;23.79;100702.77;102408;1116;81127;-68
2021/06/09 07:12:25;;;;;;;6.00;2.40;;;;;;;36.35;23.26;100709.67;102408;1116;66098;-70
2021/06/09 07:14:39;;;;;;;8.10;2.20;;;;;;;36.16;23.02;100703.84;102369;1116;69205;-68
2021/06/09 07:16:48;;;;;;;3.50;2.50;;;;;;;34.70;24.26;100702.64;102398;1116;85447;-69
2021/06/09 07:18:56;;;;;;;3.60;2.50;;;;;;;32.90;25.31;100708.98;102425;1116;74776;-70
2021/06/09 07:21:03;;;;;;;3.10;2.50;;;;;;;31.84;26.10;100715.01;102370;1116;81144;-68
2021/06/09 07:23:11;;;;;;;2.90;2.70;;;;;;;30.84;27.44;100710.94;102385;1116;66205;-68
2021/06/09 07:25:19;;;;;;;3.80;2.40;;;;;;;30.03;28.80;100711.09;102465;1116;69335;-64
2021/06/09 07:27:31;;;;;;;4.10;2.60;;;;;;;29.40;30.08;100705.36;102423;1116;84124;-63
2021/06/09 07:29:38;;;;;;;4.80;3.00;;;;;;;28.95;30.78;100705.00;102423;1116;74975;-63
2021/06/09 07:31:49;;;;;;;3.80;2.50;;;;;;;28.45;31.36;100709.39;102393;1116;81793;-64
2021/06/09 07:33:57;;;;;;;3.30;2.30;;;;;;;28.27;32.29;100710.19;102388;1116;66179;-69
2021/06/09 07:36:10;;;;;;;3.10;2.40;;;;;;;28.66;31.78;100713.55;102401;1116;69355;-69
2021/06/09 07:38:22;;;;;;;3.80;2.30;;;;;;;29.08;31.93;100709.81;102399;1116;85345;-69
2021/06/09 07:40:40;;;;;;;3.20;2.80;;;;;;;28.98;31.94;100700.81;102376;1116;74924;-68
2021/06/09 07:42:55;;;;;;;3.20;2.60;;;;;;;28.28;32.11;100697.13;102358;1116;81263;-68
2021/06/09 07:45:10;;;;;;;4.10;3.00;;;;;;;28.12;32.96;100713.19;102373;1116;66229;-69
2021/06/09 07:47:18;;;;;;;3.10;2.40;;;;;;;28.30;33.19;100705.98;102433;1116;67841;-68
2021/06/09 07:49:26;;;;;;;3.80;2.50;;;;;;;27.96;33.59;100711.70;102400;1116;85435;-63
2021/06/09 07:51:35;;;;;;;3.20;2.30;;;;;;;28.39;34.32;100706.98;102413;1116;73610;-63
2021/06/09 07:53:46;;;;;;;3.40;2.70;;;;;;;29.05;33.10;100709.58;102366;1118;80419;-62
2021/06/09 07:55:54;;;;;;;3.60;2.70;;;;;;;28.94;32.89;100694.19;102398;1117;66508;-68
2021/06/09 07:58:03;;;;;;;6.10;3.00;;;;;;;28.51;33.14;100702.61;102393;1117;67467;-71
2021/06/09 08:00:13;;;;;;;3.30;2.60;;;;;;;27.70;33.69;100702.84;102389;1117;84924;-64
2021/06/09 08:02:22;;;;;;;3.10;2.70;;;;;;;27.43;34.51;100706.20;102421;1117;74185;-64
2021/06/09 08:04:33;;;;;;;2.70;2.50;;;;;;;28.56;34.04;100707.28;102419;1117;80552;-64
2021/06/09 08:06:43;;;;;;;2.70;2.40;;;;;;;28.92;33.58;100707.58;102412;1116;67414;-69
2021/06/09 08:08:51;;;;;;;3.00;2.70;;;;;;;30.07;32.37;100706.56;102416;1117;68453;-64
2021/06/09 08:10:59;;;;;;;3.00;2.20;;;;;;;31.20;31.35;100696.94;102392;1117;85165;-62
2021/06/09 08:13:07;;;;;;;7.10;3.00;;;;;;;32.75;30.49;100698.27;102429;1117;74390;-63
2021/06/09 08:15:16;;;;;;;3.20;2.40;;;;;;;33.61;29.07;100693.38;102348;1117;81403;-68
2021/06/09 08:17:27;;;;;;;2.90;2.50;;;;;;;33.69;27.75;100700.09;102420;1117;66260;-68
2021/06/09 08:19:36;;;;;;;2.80;2.20;;;;;;;33.55;26.91;100696.66;102440;1117;67617;-69
2021/06/09 08:21:47;;;;;;;3.40;2.40;;;;;;;33.46;27.29;100702.29;102410;1118;84415;-70
2021/06/09 08:23:59;;;;;;;3.10;2.10;;;;;;;32.36;26.82;100704.01;102388;1116;74668;-64
2021/06/09 08:26:08;;;;;;;3.50;2.10;;;;;;;31.63;27.72;100708.36;102388;1118;81209;-67
2021/06/09 08:28:15;;;;;;;3.70;2.40;;;;;;;31.24;28.70;100705.48;102399;1117;66603;-69
2021/06/09 08:30:25;;;;;;;3.60;2.30;;;;;;;30.79;28.42;100705.45;102417;1118;69776;-69
2021/06/09 08:32:33;;;;;;;3.40;2.20;;;;;;;30.80;28.65;100703.50;102420;1117;84315;-68
2021/06/09 08:34:40;;;;;;;3.00;2.30;;;;;;;30.75;29.00;100709.20;102415;1118;75950;-63
2021/06/09 08:36:51;;;;;;;2.80;2.20;;;;;;;30.74;29.06;100708.38;102381;1117;81827;-64
2021/06/09 08:39:00;;;;;;;5.20;2.00;;;;;;;30.24;29.30;100706.75;102363;1117;67024;-64
2021/06/09 08:41:09;;;;;;;4.50;2.40;;;;;;;30.08;28.60;100714.59;102391;1118;67640;-65
2021/06/09 08:43:18;;;;;;;4.50;2.20;;;;;;;30.26;28.96;100708.09;102400;1117;85010;-62
2021/06/09 08:45:26;;;;;;;4.40;2.70;;;;;;;30.48;29.11;100709.30;102401;1117;73431;-68
2021/06/09 08:47:34;;;;;;;2.90;1.90;;;;;;;30.13;28.93;100710.90;102388;1118;80991;-70
2021/06/09 08:49:43;;;;;;;3.70;2.10;;;;;;;29.55;29.25;100713.44;102439;1117;65735;-64
2021/06/09 08:51:55;;;;;;;2.40;2.10;;;;;;;29.08;29.87;100704.24;102383;1116;69204;-65
2021/06/09 08:54:09;;;;;;;3.40;2.10;;;;;;;29.73;29.01;100702.20;102386;1116;84693;-69
2021/06/09 08:56:22;;;;;;;2.50;1.80;;;;;;;29.93;29.12;100703.79;102413;1116;73836;-69
2021/06/09 08:58:32;;;;;;;2.70;2.50;;;;;;;29.64;29.38;100698.48;102390;1116;80427;-66
2021/06/09 09:00:40;;;;;;;4.40;2.30;;;;;;;29.87;30.16;100710.59;102384;1117;67095;-69
2021/06/09 09:02:51;;;;;;;5.50;2.20;;;;;;;30.11;29.25;100707.58;102407;1116;69193;-67
2021/06/09 09:04:58;;;;;;;3.50;2.40;;;;;;;30.38;28.97;100707.59;102435;1116;84825;-69
2021/06/09 09:07:11;;;;;;;2.10;1.90;;;;;;;30.24;29.37;100707.55;102432;1116;75431;-67
2021/06/09 09:09:18;;;;;;;5.90;2.50;;;;;;;30.00;29.19;100715.33;102379;1116;81301;-62
2021/06/09 09:11:28;;;;;;;5.70;2.20;;;;;;;29.87;28.80;100715.34;102393;1116;66375;-62
2021/06/09 09:13:36;;;;;;;5.40;1.90;;;;;;;30.22;27.77;100711.80;102416;1116;68103;-65
2021/06/09 09:15:43;;;;;;;6.00;1.70;;;;;;;30.13;27.11;100708.11;102397;1116;83640;-65
2021/06/09 09:17:57;;;;;;;5.70;2.60;;;;;;;29.81;27.84;100707.09;102367;1117;74012;-66
2021/06/09 09:20:14;;;;;;;6.80;2.10;;;;;;;29.57;28.56;100703.64;102367;1115;81497;-67
2021/06/09 09:22:33;;;;;;;2.90;1.90;;;;;;;29.42;28.85;100700.34;102417;1116;65347;-68
2021/06/09 09:24:44;;;;;;;5.40;1.90;;;;;;;29.27;29.15;100708.95;102430;1115;69087;-62
2021/06/09 09:27:00;;;;;;;2.90;2.20;;;;;;;29.30;29.24;100699.99;102421;1116;85463;-63
2021/06/09 09:29:20;;;;;;;4.60;2.20;;;;;;;29.40;29.48;100691.44;102434;1116;74818;-60
2021/06/09 09:31:28;;;;;;;5.70;2.50;;;;;;;30.01;29.35;100696.66;102390;1116;80732;-62
2021/06/09 09:33:35;;;;;;;5.60;2.80;;;;;;;29.85;29.42;100698.95;102370;1116;66374;-64
2021/06/09 09:35:45;;;;;;;6.60;2.60;;;;;;;29.32;28.85;100704.12;102426;1116;68280;-64
2021/06/09 09:38:16;;;;;;;7.00;2.80;;;;;;;28.97;30.01;100704.71;102413;1116;85083;-64
2021/06/09 09:40:26;;;;;;;5.50;2.50;;;;;;;28.40;30.20;100705.86;102422;1117;74685;-64
2021/06/09 09:42:37;;;;;;;3.30;2.30;;;;;;;28.53;31.27;100710.66;102367;1116;81884;-63
2021/06/09 09:44:48;;;;;;;8.00;2.40;;;;;;;28.54;31.63;100710.34;102376;1116;67046;-64
2021/06/09 09:46:56;;;;;;;3.70;2.30;;;;;;;28.32;30.93;100712.89;102444;1116;69470;-62
2021/06/09 09:49:14;;;;;;;5.40;2.80;;;;;;;28.23;31.25;100713.88;102381;1116;85486;-63
2021/06/09 09:51:26;;;;;;;4.10;2.40;;;;;;;28.10;31.29;100719.02;102419;1116;73848;-63
2021/06/09 09:53:34;;;;;;;9.30;3.20;;;;;;;27.90;32.12;100719.27;102352;1116;81467;-62
2021/06/09 09:55:59;;;;;;;4.30;2.60;;;;;;;27.69;32.86;100722.58;102390;1116;66857;-62
2021/06/09 09:58:12;;;;;;;3.50;2.30;;;;;;;27.58;32.92;100718.27;102409;1116;69363;-62
2021/06/09 10:00:34;;;;;;;3.30;2.10;;;;;;;27.48;32.60;100717.23;102401;1116;84980;-60